Saint Marks, Florida
Current Conditions -  °F | °C
As of 5:53 PM on Tuesday 25 Nov 2014 (Local Time) from KTLH Reporting Station
Overcast Overcast  
Wind Chill: 54°   Ceiling: 500
Heat Index: 54°   Visibility: 2.5mi
Dew Point: 51°   Wind: 10mph
Humidity: 90%   Direction: 340°NNW
Pressure: 30.02"   Gusts: NA
Location:  30.16°N, 84.21°W
Report Text: KTLH 252253Z 34009KT 2 1/2SM OVC005 12/11 A3002 RMK AO2 SFC VIS 10 RAE43 SLP163 P0013 T01220106 $
Loading
Personal Weather Stations






























Interactive Weather Map New forecast layout! Learn more

10-Day Weather Forecast

Advertisements
Track Severe Weather on mobile